createdAt,value
2022-12-01T00:01:55.884Z,5.52
2022-12-01T00:04:22.167Z,5.54
2022-12-01T00:06:48.437Z,5.38
2022-12-01T00:09:19.420Z,5.55
2022-12-01T00:11:46.321Z,5.07
2022-12-01T00:14:12.578Z,4.90
2022-12-01T00:16:38.868Z,5.15
2022-12-01T00:19:05.181Z,5.11
2022-12-01T00:21:31.446Z,4.90
2022-12-01T00:23:57.709Z,4.88
2022-12-01T00:26:23.979Z,5.08
2022-12-01T00:28:50.252Z,4.93
2022-12-01T00:31:16.595Z,5.01
2022-12-01T00:33:42.911Z,5.01
2022-12-01T00:36:09.188Z,4.91
2022-12-01T00:38:35.453Z,4.90
2022-12-01T00:41:01.706Z,5.07
2022-12-01T00:43:27.983Z,4.99
2022-12-01T00:45:54.307Z,4.98
2022-12-01T00:48:20.630Z,5.12
2022-12-01T00:50:46.883Z,5.05
2022-12-01T00:53:13.161Z,5.09
2022-12-01T00:55:39.401Z,4.74
2022-12-01T00:58:05.677Z,4.90
2022-12-01T01:00:31.957Z,5.07
2022-12-01T01:02:58.220Z,4.95
2022-12-01T01:05:24.481Z,5.07
2022-12-01T01:07:50.826Z,4.97
2022-12-01T01:10:17.107Z,5.11
2022-12-01T01:12:43.370Z,4.95
2022-12-01T01:15:09.621Z,4.96
2022-12-01T01:17:35.887Z,5.14
2022-12-01T01:20:02.151Z,5.11
2022-12-01T01:22:28.393Z,5.24
2022-12-01T01:24:54.641Z,5.27
2022-12-01T01:27:20.925Z,5.06
2022-12-01T01:29:47.526Z,5.10
2022-12-01T01:32:14.095Z,5.16
2022-12-01T01:34:40.374Z,4.77
2022-12-01T01:37:06.657Z,5.03
2022-12-01T01:39:32.951Z,4.99
2022-12-01T01:41:59.213Z,4.88
2022-12-01T01:44:25.472Z,5.04
2022-12-01T01:46:51.742Z,4.95
2022-12-01T01:49:18.018Z,5.08
2022-12-01T01:51:44.281Z,5.04
2022-12-01T01:54:10.555Z,5.14
2022-12-01T01:56:36.814Z,5.15
2022-12-01T01:59:03.077Z,5.18
2022-12-01T02:01:29.365Z,5.21
2022-12-01T02:03:55.676Z,5.03
2022-12-01T02:06:21.973Z,5.13
2022-12-01T02:08:48.233Z,5.31
2022-12-01T02:11:14.563Z,4.92
2022-12-01T02:13:40.842Z,5.03
2022-12-01T02:16:07.094Z,5.23
2022-12-01T02:18:33.355Z,5.25
2022-12-01T02:20:59.621Z,5.19
2022-12-01T02:23:25.910Z,5.23
2022-12-01T02:25:52.164Z,5.09
2022-12-01T02:28:18.433Z,5.11
2022-12-01T02:30:44.726Z,5.01
2022-12-01T02:33:11.042Z,5.09
2022-12-01T02:35:37.301Z,5.09
2022-12-01T02:38:03.553Z,5.15
2022-12-01T02:40:29.800Z,5.23
2022-12-01T02:42:56.082Z,5.19
2022-12-01T02:45:22.350Z,5.11
2022-12-01T02:47:48.621Z,5.16
2022-12-01T02:50:14.878Z,4.96
2022-12-01T02:52:41.150Z,4.94
2022-12-01T02:55:07.429Z,4.97
2022-12-01T02:57:33.710Z,4.95
2022-12-01T02:59:59.987Z,4.94
2022-12-01T03:02:26.261Z,4.98
2022-12-01T03:04:52.551Z,4.97
2022-12-01T03:07:18.921Z,4.75
2022-12-01T03:09:45.317Z,4.88
2022-12-01T03:12:11.592Z,5.11
2022-12-01T03:14:37.846Z,4.97
2022-12-01T03:17:04.115Z,5.07
2022-12-01T03:19:30.356Z,5.18
2022-12-01T03:21:56.601Z,5.24
2022-12-01T03:24:22.933Z,5.23
2022-12-01T03:26:49.186Z,5.28
2022-12-01T03:29:15.445Z,5.24
2022-12-01T03:31:41.768Z,5.30
2022-12-01T03:34:08.077Z,5.24
2022-12-01T03:36:34.337Z,5.29
2022-12-01T03:39:00.646Z,5.36
2022-12-01T03:41:26.906Z,5.34
2022-12-01T03:43:53.172Z,5.29
2022-12-01T03:46:19.499Z,5.38
2022-12-01T03:48:45.813Z,5.34
2022-12-01T03:51:12.062Z,5.45
2022-12-01T03:53:38.316Z,5.51
2022-12-01T03:56:04.582Z,5.51
2022-12-01T03:58:30.845Z,5.42
2022-12-01T04:00:57.116Z,5.46
2022-12-01T04:03:23.409Z,5.43
2022-12-01T04:05:49.719Z,5.42
2022-12-01T04:08:15.994Z,5.42
2022-12-01T04:10:42.248Z,5.32
2022-12-01T04:13:08.501Z,5.36
2022-12-01T04:15:34.739Z,5.39
2022-12-01T04:18:01.003Z,5.34
2022-12-01T04:20:27.278Z,5.34
2022-12-01T04:22:53.615Z,5.32
2022-12-01T04:25:19.861Z,5.39
2022-12-01T04:27:46.127Z,5.46
2022-12-01T04:30:12.387Z,5.47
2022-12-01T04:32:38.639Z,5.34
2022-12-01T04:35:04.905Z,5.48
2022-12-01T04:37:31.171Z,5.45
2022-12-01T04:39:57.426Z,5.48
2022-12-01T04:42:23.678Z,5.29
2022-12-01T04:44:49.945Z,5.14
2022-12-01T04:47:16.206Z,5.36
2022-12-01T04:49:42.459Z,5.27
2022-12-01T04:52:08.706Z,5.33
2022-12-01T04:54:34.976Z,5.31
2022-12-01T04:57:01.255Z,5.43
2022-12-01T04:59:27.536Z,5.45
2022-12-01T05:01:53.921Z,5.49
2022-12-01T05:04:20.257Z,5.56
2022-12-01T05:06:46.508Z,5.59
2022-12-01T05:09:16.900Z,5.56
2022-12-01T05:11:43.918Z,5.39
2022-12-01T05:14:10.212Z,5.42
2022-12-01T05:16:36.556Z,5.47
2022-12-01T05:19:02.835Z,5.54
2022-12-01T05:21:29.112Z,5.59
2022-12-01T05:23:55.386Z,5.41
2022-12-01T05:26:21.667Z,5.51
2022-12-01T05:28:47.921Z,5.49
2022-12-01T05:31:14.262Z,5.37
2022-12-01T05:33:40.570Z,5.60
2022-12-01T05:36:07.185Z,5.50
2022-12-01T05:38:33.500Z,5.55
2022-12-01T05:40:59.777Z,5.43
2022-12-01T05:43:29.281Z,5.37
2022-12-01T05:45:56.161Z,5.43
2022-12-01T05:48:22.482Z,5.54
2022-12-01T05:50:48.735Z,5.55
2022-12-01T05:53:15.184Z,5.50
2022-12-01T05:55:41.459Z,5.52
2022-12-01T05:58:07.735Z,5.58
2022-12-01T06:00:34.024Z,5.43
2022-12-01T06:03:00.288Z,5.38
2022-12-01T06:05:26.567Z,5.25
2022-12-01T06:07:52.950Z,5.42
2022-12-01T06:10:19.243Z,5.44
2022-12-01T06:12:45.529Z,5.38
2022-12-01T06:15:11.818Z,5.45
2022-12-01T06:17:40.436Z,5.51
2022-12-01T06:20:06.956Z,5.43
2022-12-01T06:22:33.214Z,5.34
2022-12-01T06:24:59.471Z,5.37
2022-12-01T06:27:25.731Z,5.43
2022-12-01T06:29:52.297Z,5.48
2022-12-01T06:32:18.745Z,5.44
2022-12-01T06:34:44.993Z,5.42
2022-12-01T06:37:11.275Z,5.47
2022-12-01T06:39:37.521Z,5.47
2022-12-01T06:42:03.801Z,5.50
2022-12-01T06:44:30.078Z,5.50
2022-12-01T06:46:56.372Z,5.54
2022-12-01T06:49:22.649Z,5.51
2022-12-01T06:51:48.942Z,5.38
2022-12-01T06:54:15.205Z,5.17
2022-12-01T06:56:41.458Z,5.09
2022-12-01T06:59:07.907Z,5.32
2022-12-01T07:01:34.375Z,5.43
2022-12-01T07:04:00.693Z,5.38
2022-12-01T07:06:26.964Z,5.41
2022-12-01T07:08:53.278Z,5.41
2022-12-01T07:11:19.522Z,5.37
2022-12-01T07:13:45.800Z,5.20
2022-12-01T07:16:12.120Z,5.07
2022-12-01T07:18:38.416Z,5.26
2022-12-01T07:21:04.691Z,5.24
2022-12-01T07:23:30.969Z,5.11
2022-12-01T07:25:57.226Z,5.28
2022-12-01T07:28:23.483Z,5.30
2022-12-01T07:30:49.764Z,5.34
2022-12-01T07:33:16.073Z,5.39
2022-12-01T07:35:42.346Z,5.36
2022-12-01T07:38:08.626Z,5.31
2022-12-01T07:40:34.871Z,5.23
2022-12-01T07:43:01.152Z,5.19
2022-12-01T07:45:27.462Z,5.25
2022-12-01T07:47:53.783Z,5.22
2022-12-01T07:50:20.045Z,5.21
2022-12-01T07:52:46.313Z,5.15
2022-12-01T07:55:12.596Z,5.18
2022-12-01T07:57:38.878Z,5.15
2022-12-01T08:00:05.242Z,5.22
2022-12-01T08:02:31.568Z,5.24
2022-12-01T08:04:57.947Z,5.19
2022-12-01T08:07:28.448Z,5.13
2022-12-01T08:09:56.055Z,5.23
2022-12-01T08:12:22.405Z,5.21
2022-12-01T08:14:48.643Z,5.28
2022-12-01T08:17:14.930Z,5.14
2022-12-01T08:19:41.201Z,5.25
2022-12-01T08:22:07.481Z,5.06
2022-12-01T08:24:33.788Z,5.23
2022-12-01T08:27:00.084Z,5.30
2022-12-01T08:29:26.333Z,5.29
2022-12-01T08:31:52.610Z,5.34
2022-12-01T08:34:18.870Z,5.37
2022-12-01T08:36:45.142Z,5.44
2022-12-01T08:39:11.434Z,5.39
2022-12-01T08:41:37.755Z,5.40
2022-12-01T08:44:04.047Z,5.41
2022-12-01T08:46:30.363Z,5.48
2022-12-01T08:48:56.677Z,5.48
2022-12-01T08:51:22.946Z,5.42
2022-12-01T08:53:49.247Z,5.55
2022-12-01T08:56:15.499Z,5.61
2022-12-01T08:58:41.755Z,5.15
2022-12-01T09:01:09.098Z,5.41
2022-12-01T09:03:35.377Z,5.43
2022-12-01T09:06:01.675Z,5.48
2022-12-01T09:08:27.953Z,5.58
2022-12-01T09:10:54.236Z,5.55
2022-12-01T09:13:20.518Z,5.53
2022-12-01T09:15:46.841Z,5.66
2022-12-01T09:18:13.279Z,5.62
2022-12-01T09:20:39.527Z,5.48
2022-12-01T09:23:05.779Z,5.71
2022-12-01T09:25:32.016Z,5.82
2022-12-01T09:27:58.269Z,5.84
2022-12-01T09:30:24.553Z,5.97
2022-12-01T09:32:50.828Z,5.79
2022-12-01T09:35:22.005Z,5.96
2022-12-01T09:37:49.673Z,5.77
2022-12-01T09:40:15.925Z,5.97
2022-12-01T09:42:42.192Z,6.00
2022-12-01T09:45:08.520Z,6.07
2022-12-01T09:47:34.781Z,6.15
2022-12-01T09:50:01.038Z,6.17
2022-12-01T09:52:27.285Z,6.26
2022-12-01T09:54:53.536Z,6.31
2022-12-01T09:57:19.799Z,6.35
2022-12-01T09:59:46.160Z,6.32
2022-12-01T10:02:12.628Z,6.29
2022-12-01T10:04:38.936Z,6.30
2022-12-01T10:07:05.178Z,6.34
2022-12-01T10:09:31.429Z,6.22
2022-12-01T10:11:57.700Z,6.18
2022-12-01T10:14:23.971Z,6.34
2022-12-01T10:16:50.262Z,6.35
2022-12-01T10:19:16.515Z,6.36
2022-12-01T10:21:42.766Z,6.36
2022-12-01T10:24:09.301Z,6.40
2022-12-01T10:26:35.789Z,6.39
2022-12-01T10:29:02.094Z,6.44
2022-12-01T10:31:28.459Z,6.42
2022-12-01T10:33:54.813Z,6.37
2022-12-01T10:36:21.085Z,6.52
2022-12-01T10:38:47.392Z,6.42
2022-12-01T10:41:13.704Z,6.49
2022-12-01T10:43:39.972Z,6.38
2022-12-01T10:46:06.328Z,6.28
2022-12-01T10:48:32.667Z,6.45
2022-12-01T10:50:59.037Z,6.34
2022-12-01T10:53:25.376Z,6.53
2022-12-01T10:55:51.665Z,6.52
2022-12-01T10:58:18.463Z,6.45
2022-12-01T11:00:59.602Z,6.40
2022-12-01T11:03:27.269Z,6.41
2022-12-01T11:05:53.733Z,6.30
2022-12-01T11:08:20.056Z,6.37
2022-12-01T11:10:46.352Z,6.45
2022-12-01T11:13:12.613Z,6.38
2022-12-01T11:15:38.986Z,6.41
2022-12-01T11:18:07.124Z,6.34
2022-12-01T11:20:33.488Z,6.21
2022-12-01T11:22:59.813Z,6.37
2022-12-01T11:25:29.336Z,6.42
2022-12-01T11:27:55.640Z,6.33
2022-12-01T11:30:21.926Z,6.55
2022-12-01T11:32:48.233Z,6.49
2022-12-01T11:35:14.494Z,6.30
2022-12-01T11:37:41.962Z,6.51
2022-12-01T11:40:08.978Z,6.41
2022-12-01T11:42:35.296Z,6.50
2022-12-01T11:45:01.869Z,6.42
2022-12-01T11:47:28.325Z,6.12
2022-12-01T11:49:54.728Z,6.37
2022-12-01T11:52:21.229Z,6.40
2022-12-01T11:54:47.522Z,6.38
2022-12-01T11:57:33.618Z,6.34
2022-12-01T12:00:00.382Z,6.55
2022-12-01T12:02:26.686Z,6.58
2022-12-01T12:04:53.081Z,6.57
2022-12-01T12:07:19.487Z,6.57
2022-12-01T12:09:45.749Z,6.68
2022-12-01T12:12:12.036Z,6.51
2022-12-01T12:14:38.331Z,6.65
2022-12-01T12:17:04.623Z,6.71
2022-12-01T12:19:34.337Z,6.66
2022-12-01T12:22:11.655Z,6.80
2022-12-01T12:24:38.019Z,6.77
2022-12-01T12:27:04.586Z,6.95
2022-12-01T12:29:30.955Z,6.98
2022-12-01T12:31:57.224Z,7.05
2022-12-01T12:34:23.507Z,7.04
2022-12-01T12:36:49.987Z,7.06
2022-12-01T12:39:16.964Z,7.08
2022-12-01T12:41:43.441Z,7.04
2022-12-01T12:44:09.707Z,7.12
2022-12-01T12:46:36.011Z,7.11
2022-12-01T12:51:48.571Z,7.11
2022-12-01T12:54:15.095Z,7.15
2022-12-01T12:56:41.378Z,7.18
2022-12-01T12:59:07.622Z,7.16
2022-12-01T13:01:34.462Z,7.21
2022-12-01T13:04:00.771Z,7.34
2022-12-01T13:06:27.037Z,7.38
2022-12-01T13:08:53.441Z,7.36
2022-12-01T13:11:19.907Z,7.41
2022-12-01T13:13:46.194Z,7.42
2022-12-01T13:16:12.542Z,7.41
2022-12-01T13:18:39.142Z,7.38
2022-12-01T13:21:05.420Z,7.33
2022-12-01T13:23:31.674Z,7.33
2022-12-01T13:25:57.955Z,7.38
2022-12-01T13:28:24.422Z,7.36
2022-12-01T13:30:50.690Z,7.39
2022-12-01T13:33:16.973Z,7.36
2022-12-01T13:35:43.251Z,7.40
2022-12-01T13:38:09.691Z,7.35
2022-12-01T13:40:36.044Z,7.38
2022-12-01T13:43:08.617Z,7.35
2022-12-01T13:45:36.855Z,7.38
2022-12-01T13:48:03.122Z,7.29
2022-12-01T13:50:29.462Z,7.32
2022-12-01T13:52:55.755Z,7.28
2022-12-01T13:55:22.051Z,7.25
2022-12-01T13:57:48.316Z,7.19
2022-12-01T14:00:14.586Z,7.18
2022-12-01T14:02:41.009Z,7.09
2022-12-01T14:05:07.386Z,7.02
2022-12-01T14:07:33.753Z,7.09
2022-12-01T14:10:00.091Z,7.08
2022-12-01T14:12:26.392Z,7.04
2022-12-01T14:14:52.755Z,7.09
2022-12-01T14:17:19.029Z,7.04
2022-12-01T14:19:45.338Z,6.99
2022-12-01T14:22:11.609Z,7.05
2022-12-01T14:24:37.886Z,6.98
2022-12-01T14:27:04.162Z,7.01
2022-12-01T14:29:30.435Z,6.97
2022-12-01T14:31:56.762Z,6.93
2022-12-01T14:34:23.007Z,6.93
2022-12-01T14:36:49.257Z,6.92
2022-12-01T14:39:15.624Z,6.90
2022-12-01T14:41:41.883Z,6.87
2022-12-01T14:44:08.130Z,6.87
2022-12-01T14:46:34.437Z,6.81
2022-12-01T14:49:00.758Z,6.87
2022-12-01T14:51:27.040Z,6.84
2022-12-01T14:53:53.312Z,6.88
2022-12-01T14:56:19.648Z,6.77
2022-12-01T14:58:45.903Z,6.78
2022-12-01T15:01:12.222Z,6.78
2022-12-01T15:03:38.609Z,6.74
2022-12-01T15:06:04.903Z,6.71
2022-12-01T15:08:41.904Z,6.65
2022-12-01T15:11:11.325Z,6.64
2022-12-01T15:13:37.745Z,6.61
2022-12-01T15:16:04.138Z,6.68
2022-12-01T15:18:30.457Z,6.61
2022-12-01T15:20:56.715Z,6.54
2022-12-01T15:23:23.002Z,6.57
2022-12-01T15:25:49.279Z,6.52
2022-12-01T15:28:15.664Z,6.49
2022-12-01T15:30:41.911Z,6.47
2022-12-01T15:33:08.175Z,6.51
2022-12-01T15:35:34.437Z,6.52
2022-12-01T15:38:00.720Z,6.57
2022-12-01T15:43:13.316Z,6.51
2022-12-01T15:45:39.606Z,6.50
2022-12-01T15:48:05.899Z,6.53
2022-12-01T15:50:32.155Z,6.46
2022-12-01T15:52:58.455Z,6.38
2022-12-01T15:55:24.719Z,6.40
2022-12-01T15:57:51.012Z,6.43
2022-12-01T16:00:17.300Z,6.38
2022-12-01T16:02:43.640Z,6.29
2022-12-01T16:05:09.928Z,6.28
2022-12-01T16:08:04.887Z,6.26
2022-12-01T16:10:22.727Z,6.29
2022-12-01T16:12:48.990Z,6.30
2022-12-01T16:15:15.437Z,6.27
2022-12-01T16:17:41.745Z,6.27
2022-12-01T16:20:08.001Z,6.19
2022-12-01T16:22:34.279Z,6.16
2022-12-01T16:25:00.551Z,6.17
2022-12-01T16:27:26.831Z,6.18
2022-12-01T16:29:53.101Z,6.17
2022-12-01T16:32:21.038Z,6.14
2022-12-01T16:34:47.779Z,6.14
2022-12-01T16:37:14.151Z,6.13
2022-12-01T16:39:40.458Z,6.13
2022-12-01T16:42:06.783Z,6.09
2022-12-01T16:44:33.185Z,6.06
2022-12-01T16:46:59.492Z,6.01
2022-12-01T16:49:25.775Z,6.00
2022-12-01T16:51:56.831Z,6.08
2022-12-01T16:54:23.814Z,6.07
2022-12-01T16:56:50.087Z,6.00
2022-12-01T16:59:16.361Z,5.95
2022-12-01T17:01:42.700Z,5.97
2022-12-01T17:04:08.994Z,5.96
2022-12-01T17:06:35.242Z,6.06
2022-12-01T17:09:01.495Z,5.99
2022-12-01T17:11:27.763Z,5.95
2022-12-01T17:13:54.032Z,5.95
2022-12-01T17:16:20.427Z,5.89
2022-12-01T17:18:46.731Z,5.82
2022-12-01T17:21:12.980Z,5.80
2022-12-01T17:23:39.303Z,5.80
2022-12-01T17:26:05.566Z,5.77
2022-12-01T17:28:31.835Z,5.78
2022-12-01T17:30:58.154Z,5.77
2022-12-01T17:33:24.484Z,5.76
2022-12-01T17:35:50.767Z,5.75
2022-12-01T17:38:17.049Z,5.74
2022-12-01T17:40:43.328Z,5.72
2022-12-01T17:43:09.644Z,5.80
2022-12-01T17:45:35.926Z,5.78
2022-12-01T17:48:02.204Z,5.74
2022-12-01T17:50:28.475Z,5.71
2022-12-01T17:52:54.724Z,5.68
2022-12-01T17:55:21.009Z,5.55
2022-12-01T17:57:47.289Z,5.55
2022-12-01T18:00:13.575Z,5.46
2022-12-01T18:02:39.894Z,5.39
2022-12-01T18:05:06.206Z,5.30
2022-12-01T18:07:32.559Z,5.26
2022-12-01T18:09:58.848Z,5.21
2022-12-01T18:12:25.125Z,5.15
2022-12-01T18:14:51.521Z,5.18
2022-12-01T18:17:17.973Z,5.11
2022-12-01T18:19:44.248Z,5.12
2022-12-01T18:22:10.553Z,5.15
2022-12-01T18:24:36.888Z,5.18
2022-12-01T18:27:03.155Z,5.21
2022-12-01T18:29:29.413Z,5.08
2022-12-01T18:31:55.707Z,5.10
2022-12-01T18:34:21.976Z,5.01
2022-12-01T18:36:48.241Z,4.92
2022-12-01T18:39:14.508Z,4.92
2022-12-01T18:41:40.764Z,4.90
2022-12-01T18:44:07.045Z,4.87
2022-12-01T18:46:33.352Z,4.84
2022-12-01T18:48:59.640Z,4.88
2022-12-01T18:51:25.894Z,4.78
2022-12-01T18:53:52.184Z,4.81
2022-12-01T18:56:19.829Z,4.84
2022-12-01T18:58:46.232Z,4.82
2022-12-01T19:01:12.618Z,4.89
2022-12-01T19:03:38.940Z,4.80
2022-12-01T19:06:05.225Z,4.80
2022-12-01T19:08:31.483Z,4.79
2022-12-01T19:10:57.777Z,4.89
2022-12-01T19:13:24.059Z,4.83
2022-12-01T19:15:50.394Z,4.86
2022-12-01T19:18:16.702Z,4.76
2022-12-01T19:20:42.961Z,4.81
2022-12-01T19:23:09.325Z,4.75
2022-12-01T19:25:35.602Z,4.78
2022-12-01T19:28:01.887Z,4.80
2022-12-01T19:30:28.182Z,4.71
2022-12-01T19:32:54.449Z,4.69
2022-12-01T19:35:20.717Z,4.61
2022-12-01T19:37:46.975Z,4.58
2022-12-01T19:40:13.249Z,4.50
2022-12-01T19:42:39.522Z,4.63
2022-12-01T19:45:05.819Z,4.57
2022-12-01T19:47:32.106Z,4.43
2022-12-01T19:49:58.371Z,4.49
2022-12-01T19:52:24.686Z,4.55
2022-12-01T19:54:51.218Z,4.63
2022-12-01T19:57:17.609Z,4.67
2022-12-01T19:59:43.958Z,4.66
2022-12-01T20:02:10.310Z,4.59
2022-12-01T20:04:36.602Z,4.64
2022-12-01T20:07:02.877Z,4.58
2022-12-01T20:09:29.146Z,4.58
2022-12-01T20:11:55.431Z,4.54
2022-12-01T20:14:21.737Z,4.53
2022-12-01T20:16:48.069Z,4.57
2022-12-01T20:19:14.372Z,4.56
2022-12-01T20:21:40.650Z,4.57
2022-12-01T20:24:06.931Z,4.60
2022-12-01T20:26:33.199Z,4.56
2022-12-01T20:28:59.491Z,4.63
2022-12-01T20:31:25.827Z,4.62
2022-12-01T20:33:52.140Z,4.55
2022-12-01T20:36:18.404Z,4.46
2022-12-01T20:38:44.657Z,4.53
2022-12-01T20:41:10.938Z,4.53
2022-12-01T20:43:37.194Z,4.53
2022-12-01T20:46:03.633Z,4.47
2022-12-01T20:48:29.988Z,4.44
2022-12-01T20:50:56.240Z,4.47
2022-12-01T20:53:22.510Z,4.48
2022-12-01T20:55:48.790Z,4.40
2022-12-01T20:58:15.066Z,4.42
2022-12-01T21:00:41.440Z,4.41
2022-12-01T21:03:07.774Z,4.39
2022-12-01T21:05:34.132Z,4.35
2022-12-01T21:08:00.489Z,4.37
2022-12-01T21:10:26.797Z,4.37
2022-12-01T21:12:53.055Z,4.43
2022-12-01T21:15:19.342Z,4.36
2022-12-01T21:17:45.624Z,4.34
2022-12-01T21:20:11.885Z,4.44
2022-12-01T21:22:38.140Z,4.41
2022-12-01T21:25:04.399Z,4.38
2022-12-01T21:27:30.648Z,4.34
2022-12-01T21:29:56.902Z,4.34
2022-12-01T21:32:23.150Z,4.38
2022-12-01T21:34:49.885Z,4.30
2022-12-01T21:37:16.332Z,4.38
2022-12-01T21:39:42.606Z,4.43
2022-12-01T21:42:08.895Z,4.42
2022-12-01T21:44:35.193Z,4.43
2022-12-01T21:47:01.483Z,4.42
2022-12-01T21:49:27.842Z,4.45
2022-12-01T21:51:54.112Z,4.47
2022-12-01T21:54:20.368Z,4.50
2022-12-01T21:56:46.635Z,4.51
2022-12-01T21:59:12.894Z,4.53
2022-12-01T22:01:39.247Z,4.49
2022-12-01T22:04:05.562Z,4.47
2022-12-01T22:06:31.820Z,4.49
2022-12-01T22:08:58.083Z,4.50
2022-12-01T22:11:24.348Z,4.51
2022-12-01T22:13:50.615Z,4.45
2022-12-01T22:16:16.895Z,4.51
2022-12-01T22:18:43.195Z,4.54
2022-12-01T22:21:09.500Z,4.56
2022-12-01T22:23:35.870Z,4.57
2022-12-01T22:26:02.193Z,4.48
2022-12-01T22:28:28.465Z,4.51
2022-12-01T22:30:54.798Z,4.48
2022-12-01T22:33:21.144Z,4.48
2022-12-01T22:35:47.420Z,4.53
2022-12-01T22:38:13.681Z,4.47
2022-12-01T22:40:39.942Z,4.42
2022-12-01T22:43:12.505Z,4.40
2022-12-01T22:45:40.137Z,4.39
2022-12-01T22:48:06.402Z,4.43
2022-12-01T22:50:32.661Z,4.42
2022-12-01T22:52:58.918Z,4.40
2022-12-01T22:55:25.190Z,4.46
2022-12-01T22:57:51.459Z,4.42
2022-12-01T23:00:17.750Z,4.43
2022-12-01T23:02:44.197Z,4.46
2022-12-01T23:05:10.498Z,4.46
2022-12-01T23:07:36.847Z,4.46
2022-12-01T23:10:03.179Z,4.46
2022-12-01T23:12:29.525Z,4.44
2022-12-01T23:14:55.799Z,4.38
2022-12-01T23:17:22.077Z,4.38
2022-12-01T23:19:48.346Z,4.36
2022-12-01T23:22:14.610Z,4.37
2022-12-01T23:24:40.887Z,4.41
2022-12-01T23:27:07.161Z,4.44
2022-12-01T23:29:33.401Z,4.43
2022-12-01T23:31:59.718Z,4.45
2022-12-01T23:34:25.965Z,4.43
2022-12-01T23:36:52.214Z,4.39
2022-12-01T23:39:18.465Z,4.39
2022-12-01T23:41:44.909Z,4.34
2022-12-01T23:44:11.178Z,4.28
2022-12-01T23:46:37.512Z,4.29
2022-12-01T23:49:03.814Z,4.30
2022-12-01T23:51:30.061Z,4.21
2022-12-01T23:53:56.344Z,4.18
2022-12-01T23:56:22.594Z,4.22
2022-12-01T23:58:48.976Z,4.28
